Whiteman AFB, Missouri
Current Conditions -  °F | °C
As of 5:58 PM on Monday 24 Nov 2014 (Local Time) from KSZL Reporting Station
Few Clouds Few Clouds  
Wind Chill: 26°   Ceiling: Unl
Heat Index: 33°   Visibility: 10mi
Dew Point: 23°   Wind: 7mph
Humidity: 68%   Direction: 240°WSW
Pressure: 29.94"   Gusts: NA
Location:  38.73°N, 93.55°W
Report Text: KSZL 242358Z 24006KT 10SM FEW035 00/M05 A2994 RMK AO2A SLP149 T00031049 10045 20003 401240003 52036 $
Loading
Personal Weather Stations






























Interactive Weather Map New forecast layout! Learn more

10-Day Weather Forecast

Advertisements
Track Severe Weather on mobile